createdAt,value
2023-04-29T00:00:09.830Z,12.51
2023-04-29T00:02:36.360Z,12.49
2023-04-29T00:05:06.803Z,12.47
2023-04-29T00:07:33.785Z,12.48
2023-04-29T00:10:00.675Z,12.46
2023-04-29T00:12:28.324Z,12.39
2023-04-29T00:14:54.720Z,12.31
2023-04-29T00:17:21.274Z,12.24
2023-04-29T00:19:48.137Z,12.18
2023-04-29T00:22:14.733Z,12.12
2023-04-29T00:24:41.208Z,12.11
2023-04-29T00:27:07.704Z,12.09
2023-04-29T00:29:34.151Z,12.05
2023-04-29T00:32:00.548Z,12.04
2023-04-29T00:34:26.958Z,12.00
2023-04-29T00:36:53.469Z,11.95
2023-04-29T00:39:19.984Z,11.86
2023-04-29T00:41:46.551Z,11.86
2023-04-29T00:44:13.028Z,11.68
2023-04-29T00:46:39.585Z,11.64
2023-04-29T00:49:06.197Z,11.54
2023-04-29T00:51:33.626Z,11.59
2023-04-29T00:54:00.112Z,11.52
2023-04-29T00:56:27.508Z,11.50
2023-04-29T00:58:54.069Z,11.50
2023-04-29T01:01:21.787Z,11.42
2023-04-29T01:03:49.117Z,11.34
2023-04-29T01:07:04.914Z,11.25
2023-04-29T01:09:56.777Z,11.29
2023-04-29T01:12:36.166Z,11.25
2023-04-29T01:15:23.683Z,11.28
2023-04-29T01:18:04.111Z,11.29
2023-04-29T01:20:31.282Z,11.18
2023-04-29T01:22:58.162Z,11.15
2023-04-29T01:25:24.664Z,11.13
2023-04-29T01:28:20.177Z,11.13
2023-04-29T01:31:11.405Z,11.09
2023-04-29T01:34:07.846Z,11.09
2023-04-29T01:37:03.075Z,11.09
2023-04-29T01:39:32.428Z,11.15
2023-04-29T01:42:08.611Z,11.23
2023-04-29T01:44:36.749Z,11.22
2023-04-29T01:47:03.638Z,11.19
2023-04-29T01:49:30.171Z,11.11
2023-04-29T01:51:56.986Z,11.14
2023-04-29T01:54:23.625Z,11.10
2023-04-29T01:56:50.970Z,10.97
2023-04-29T01:59:17.492Z,11.01
2023-04-29T02:01:43.933Z,11.00
2023-04-29T02:04:10.448Z,11.01
2023-04-29T02:06:36.933Z,10.94
2023-04-29T02:09:03.916Z,10.91
2023-04-29T02:11:30.310Z,10.91
2023-04-29T02:13:56.837Z,10.87
2023-04-29T02:16:23.444Z,10.84
2023-04-29T02:18:49.865Z,10.77
2023-04-29T02:21:16.337Z,10.74
2023-04-29T02:23:42.783Z,10.76
2023-04-29T02:26:10.494Z,10.79
2023-04-29T02:28:37.205Z,10.63
2023-04-29T02:31:03.638Z,10.65
2023-04-29T02:33:30.161Z,10.70
2023-04-29T02:35:56.549Z,10.69
2023-04-29T02:38:23.118Z,10.61
2023-04-29T02:40:50.430Z,10.52
2023-04-29T02:43:17.092Z,10.52
2023-04-29T02:45:43.613Z,10.52
2023-04-29T02:48:10.179Z,10.47
2023-04-29T02:50:36.672Z,10.40
2023-04-29T02:53:03.316Z,10.35
2023-04-29T02:55:29.719Z,10.42
2023-04-29T02:57:56.146Z,10.43
2023-04-29T03:00:23.285Z,10.42
2023-04-29T03:02:49.846Z,10.37
2023-04-29T03:05:16.463Z,10.27
2023-04-29T03:07:44.251Z,10.31
2023-04-29T03:10:11.530Z,10.30
2023-04-29T03:12:39.339Z,10.32
2023-04-29T03:15:10.538Z,10.28
2023-04-29T03:17:37.304Z,10.27
2023-04-29T03:20:04.747Z,10.27
2023-04-29T03:22:31.265Z,10.22
2023-04-29T03:24:57.771Z,10.21
2023-04-29T03:27:24.367Z,10.27
2023-04-29T03:29:51.152Z,10.23
2023-04-29T03:32:17.807Z,10.28
2023-04-29T03:34:44.272Z,10.21
2023-04-29T03:37:10.738Z,10.16
2023-04-29T03:39:37.211Z,10.18
2023-04-29T03:42:04.529Z,10.14
2023-04-29T03:44:31.033Z,10.04
2023-04-29T03:46:57.480Z,10.01
2023-04-29T03:49:23.889Z,10.01
2023-04-29T03:51:50.558Z,10.06
2023-04-29T03:54:17.382Z,10.03
2023-04-29T03:56:43.794Z,9.99
2023-04-29T03:59:10.353Z,10.03
2023-04-29T04:01:36.963Z,10.04
2023-04-29T04:04:03.630Z,9.98
2023-04-29T04:06:31.297Z,10.01
2023-04-29T04:08:57.745Z,10.00
2023-04-29T04:11:24.257Z,10.02
2023-04-29T04:13:50.702Z,10.07
2023-04-29T04:16:17.212Z,10.09
2023-04-29T04:18:43.678Z,10.05
2023-04-29T04:21:11.632Z,10.09
2023-04-29T04:23:41.041Z,10.00
2023-04-29T04:26:08.075Z,9.98
2023-04-29T04:28:34.620Z,10.00
2023-04-29T04:31:01.097Z,9.96
2023-04-29T04:33:27.764Z,10.04
2023-04-29T04:35:54.299Z,9.99
2023-04-29T04:38:20.754Z,9.93
2023-04-29T04:40:47.288Z,9.91
2023-04-29T04:43:13.738Z,9.83
2023-04-29T04:45:40.220Z,9.78
2023-04-29T04:48:06.984Z,9.76
2023-04-29T04:50:33.528Z,9.75
2023-04-29T04:52:59.927Z,9.79
2023-04-29T04:55:26.367Z,9.75
2023-04-29T04:57:52.828Z,9.69
2023-04-29T05:00:19.569Z,9.75
2023-04-29T05:02:46.186Z,9.76
2023-04-29T05:05:12.780Z,9.71
2023-04-29T05:07:39.802Z,9.76
2023-04-29T05:10:08.538Z,9.70
2023-04-29T05:12:35.391Z,9.66
2023-04-29T05:15:02.772Z,9.70
2023-04-29T05:17:29.705Z,9.76
2023-04-29T05:19:56.386Z,9.78
2023-04-29T05:22:23.033Z,9.78
2023-04-29T05:24:49.608Z,9.82
2023-04-29T05:27:16.147Z,9.76
2023-04-29T05:29:42.689Z,9.75
2023-04-29T05:32:09.559Z,9.81
2023-04-29T05:34:36.112Z,9.75
2023-04-29T05:37:02.571Z,9.79
2023-04-29T05:39:28.975Z,9.73
2023-04-29T05:41:55.503Z,9.72
2023-04-29T05:44:22.742Z,9.71
2023-04-29T05:46:49.243Z,9.74
2023-04-29T05:49:16.199Z,9.72
2023-04-29T05:51:42.615Z,9.79
2023-04-29T05:54:09.003Z,9.82
2023-04-29T05:56:35.572Z,9.79
2023-04-29T05:59:01.974Z,9.81
2023-04-29T06:01:28.424Z,9.84
2023-04-29T06:03:55.103Z,9.86
2023-04-29T06:06:22.013Z,9.80
2023-04-29T06:08:48.979Z,9.86
2023-04-29T06:11:15.692Z,9.89
2023-04-29T06:13:42.210Z,9.96
2023-04-29T06:16:08.942Z,9.98
2023-04-29T06:18:35.447Z,9.89
2023-04-29T06:21:01.880Z,9.93
2023-04-29T06:23:28.278Z,9.92
2023-04-29T06:25:54.749Z,9.96
2023-04-29T06:28:22.454Z,9.95
2023-04-29T06:30:51.406Z,9.93
2023-04-29T06:33:17.911Z,9.89
2023-04-29T06:35:44.309Z,9.87
2023-04-29T06:38:10.957Z,9.82
2023-04-29T06:40:37.552Z,9.84
2023-04-29T06:43:04.522Z,9.84
2023-04-29T06:45:31.677Z,9.87
2023-04-29T06:47:58.122Z,9.86
2023-04-29T06:50:24.796Z,9.84
2023-04-29T06:52:51.452Z,9.89
2023-04-29T06:55:17.939Z,9.88
2023-04-29T06:57:44.331Z,9.87
2023-04-29T07:00:12.150Z,9.82
2023-04-29T07:02:39.117Z,9.76
2023-04-29T07:05:06.525Z,9.76
2023-04-29T07:07:33.141Z,9.78
2023-04-29T07:09:59.656Z,9.81
2023-04-29T07:12:26.763Z,9.85
2023-04-29T07:14:53.268Z,9.87
2023-04-29T07:17:20.731Z,9.92
2023-04-29T07:19:47.298Z,9.91
2023-04-29T07:22:13.789Z,9.96
2023-04-29T07:24:40.548Z,9.94
2023-04-29T07:27:07.346Z,9.96
2023-04-29T07:29:33.820Z,9.97
2023-04-29T07:32:00.287Z,9.99
2023-04-29T07:34:26.699Z,9.97
2023-04-29T07:36:53.164Z,10.07
2023-04-29T07:39:19.574Z,10.15
2023-04-29T07:41:46.046Z,10.04
2023-04-29T07:44:12.469Z,10.04
2023-04-29T07:46:39.027Z,10.07
2023-04-29T07:49:06.912Z,10.07
2023-04-29T07:51:33.511Z,10.13
2023-04-29T07:53:59.946Z,10.19
2023-04-29T07:56:26.378Z,10.23
2023-04-29T07:58:52.948Z,10.24
2023-04-29T08:01:19.421Z,10.21
2023-04-29T08:03:45.963Z,10.24
2023-04-29T08:06:13.104Z,10.26
2023-04-29T08:08:39.837Z,10.16
2023-04-29T08:11:06.719Z,10.15
2023-04-29T08:13:33.387Z,10.13
2023-04-29T08:15:59.927Z,10.16
2023-04-29T08:18:26.620Z,10.14
2023-04-29T08:20:53.113Z,10.17
2023-04-29T08:23:19.676Z,10.22
2023-04-29T08:25:46.284Z,10.32
2023-04-29T08:28:13.232Z,10.32
2023-04-29T08:30:40.957Z,10.31
2023-04-29T08:33:08.369Z,10.29
2023-04-29T08:35:37.568Z,10.29
2023-04-29T08:38:06.324Z,10.19
2023-04-29T08:40:44.187Z,10.17
2023-04-29T08:43:10.828Z,10.14
2023-04-29T08:45:37.949Z,10.13
2023-04-29T08:48:06.642Z,10.15
2023-04-29T08:50:40.024Z,10.13
2023-04-29T08:53:10.549Z,10.12
2023-04-29T08:55:41.670Z,10.06
2023-04-29T08:58:08.682Z,10.01
2023-04-29T09:00:37.183Z,10.04
2023-04-29T09:03:27.162Z,10.04
2023-04-29T09:05:56.110Z,9.98
2023-04-29T09:08:24.018Z,10.05
2023-04-29T09:10:52.495Z,10.04
2023-04-29T09:13:37.146Z,9.97
2023-04-29T09:16:03.938Z,9.99
2023-04-29T09:18:50.860Z,10.01
2023-04-29T09:21:22.570Z,10.00
2023-04-29T09:23:58.052Z,10.02
2023-04-29T09:26:25.650Z,10.01
2023-04-29T09:29:16.501Z,10.02
2023-04-29T09:31:43.290Z,10.04
2023-04-29T09:34:11.944Z,10.06
2023-04-29T09:36:47.616Z,10.12
2023-04-29T09:39:21.193Z,10.13
2023-04-29T09:41:53.789Z,10.15
2023-04-29T09:44:25.140Z,10.14
2023-04-29T09:46:59.868Z,10.20
2023-04-29T09:49:38.824Z,10.28
2023-04-29T09:52:07.232Z,10.21
2023-04-29T09:54:36.537Z,10.28
2023-04-29T09:57:06.031Z,10.34
2023-04-29T09:59:37.447Z,10.35
2023-04-29T10:02:18.793Z,10.38
2023-04-29T10:04:47.530Z,10.39
2023-04-29T10:07:16.679Z,10.32
2023-04-29T10:09:45.025Z,10.39
2023-04-29T10:12:15.691Z,10.37
2023-04-29T10:14:49.282Z,10.39
2023-04-29T10:17:30.110Z,10.41
2023-04-29T10:20:05.912Z,10.38
2023-04-29T10:22:54.870Z,10.40
2023-04-29T10:25:23.239Z,10.38
2023-04-29T10:27:54.252Z,10.35
2023-04-29T10:30:22.011Z,10.39
2023-04-29T10:32:52.085Z,10.50
2023-04-29T10:35:22.661Z,10.56
2023-04-29T10:37:49.899Z,10.58
2023-04-29T10:40:27.984Z,10.54
2023-04-29T10:42:55.610Z,10.54
2023-04-29T10:45:29.924Z,10.64
2023-04-29T10:48:09.070Z,10.56
2023-04-29T10:50:45.380Z,10.63
2023-04-29T10:53:11.830Z,10.71
2023-04-29T10:55:39.009Z,10.79
2023-04-29T10:58:06.524Z,10.78
2023-04-29T11:00:34.652Z,10.83
2023-04-29T11:03:02.670Z,10.94
2023-04-29T11:05:34.178Z,10.85
2023-04-29T11:08:24.320Z,10.93
2023-04-29T11:11:00.304Z,11.00
2023-04-29T11:13:29.578Z,11.03
2023-04-29T11:16:06.141Z,11.08
2023-04-29T11:18:34.647Z,11.26
2023-04-29T11:21:07.147Z,11.36
2023-04-29T11:23:38.927Z,11.40
2023-04-29T11:26:05.666Z,11.39
2023-04-29T11:28:33.050Z,11.45
2023-04-29T11:31:00.637Z,11.48
2023-04-29T11:33:28.046Z,11.61
2023-04-29T11:35:55.023Z,11.57
2023-04-29T11:38:28.690Z,11.61
2023-04-29T11:40:56.266Z,11.61
2023-04-29T11:43:25.889Z,11.65
2023-04-29T11:45:53.937Z,11.61
2023-04-29T11:48:25.265Z,11.64
2023-04-29T11:50:54.133Z,11.63
2023-04-29T11:53:22.061Z,11.70
2023-04-29T11:55:48.480Z,11.79
2023-04-29T11:58:16.464Z,11.90
2023-04-29T12:00:42.966Z,12.09
2023-04-29T12:03:17.531Z,12.23
2023-04-29T12:05:55.085Z,12.46
2023-04-29T12:08:28.893Z,12.46
2023-04-29T12:10:57.182Z,12.51
2023-04-29T12:13:26.015Z,12.55
2023-04-29T12:15:53.571Z,12.69
2023-04-29T12:18:23.223Z,12.73
2023-04-29T12:20:55.833Z,12.65
2023-04-29T12:23:24.668Z,12.78
2023-04-29T12:26:00.164Z,12.86
2023-04-29T12:28:27.321Z,12.94
2023-04-29T12:30:54.709Z,13.05
2023-04-29T12:33:26.825Z,13.23
2023-04-29T12:35:55.789Z,13.40
2023-04-29T12:38:29.813Z,13.54
2023-04-29T12:40:58.258Z,13.48
2023-04-29T12:43:35.966Z,13.44
2023-04-29T12:46:07.749Z,13.38
2023-04-29T12:48:38.030Z,13.35
2023-04-29T12:51:05.237Z,13.27
2023-04-29T12:53:32.388Z,13.23
2023-04-29T12:55:59.495Z,13.20
2023-04-29T12:58:29.726Z,13.28
2023-04-29T13:00:56.553Z,13.33
2023-04-29T13:03:23.978Z,13.36
2023-04-29T13:05:53.504Z,13.20
2023-04-29T13:08:21.122Z,13.08
2023-04-29T13:10:47.545Z,12.99
2023-04-29T13:13:13.986Z,13.00
2023-04-29T13:15:40.596Z,12.87
2023-04-29T13:18:07.504Z,12.89
2023-04-29T13:20:40.460Z,12.92
2023-04-29T13:23:08.655Z,13.01
2023-04-29T13:25:35.193Z,13.02
2023-04-29T13:28:02.022Z,13.08
2023-04-29T13:30:28.583Z,13.18
2023-04-29T13:32:58.706Z,13.31
2023-04-29T13:35:31.041Z,13.35
2023-04-29T13:37:57.676Z,13.42
2023-04-29T13:40:27.819Z,13.40
2023-04-29T13:43:02.659Z,13.40
2023-04-29T13:45:38.893Z,13.35
2023-04-29T13:48:16.936Z,13.26
2023-04-29T13:53:41.961Z,13.15
2023-04-29T13:59:19.787Z,13.10
2023-04-29T14:03:53.999Z,13.14
2023-04-29T14:06:20.618Z,13.18
2023-04-29T14:08:47.181Z,13.21
2023-04-29T14:11:13.645Z,13.18
2023-04-29T14:13:40.300Z,13.18
2023-04-29T14:16:07.325Z,13.17
2023-04-29T14:18:33.825Z,13.16
2023-04-29T14:21:00.234Z,13.20
2023-04-29T14:23:26.732Z,13.14
2023-04-29T14:25:58.887Z,13.09
2023-04-29T14:28:33.173Z,13.09
2023-04-29T14:30:59.693Z,13.12
2023-04-29T14:33:26.332Z,13.10
2023-04-29T14:35:53.486Z,13.08
2023-04-29T14:38:19.949Z,13.11
2023-04-29T14:40:46.475Z,13.09
2023-04-29T14:43:12.940Z,13.13
2023-04-29T14:45:40.692Z,13.17
2023-04-29T14:48:07.917Z,13.18
2023-04-29T14:50:34.379Z,13.23
2023-04-29T14:53:01.424Z,13.29
2023-04-29T14:55:30.185Z,13.35
2023-04-29T14:57:57.767Z,13.37
2023-04-29T15:00:24.302Z,13.38
2023-04-29T15:02:50.911Z,13.33
2023-04-29T15:05:18.008Z,13.34
2023-04-29T15:07:44.545Z,13.34
2023-04-29T15:10:11.188Z,13.38
2023-04-29T15:12:37.619Z,13.41
2023-04-29T15:15:04.822Z,13.44
2023-04-29T15:17:31.452Z,13.45
2023-04-29T15:19:57.948Z,13.52
2023-04-29T15:22:24.421Z,13.58
2023-04-29T15:24:52.653Z,13.62
2023-04-29T15:27:19.658Z,13.60
2023-04-29T15:29:46.104Z,13.54
2023-04-29T15:32:12.983Z,13.51
2023-04-29T15:34:39.567Z,13.51
2023-04-29T15:37:05.990Z,13.47
2023-04-29T15:39:32.433Z,13.45
2023-04-29T15:41:59.206Z,13.46
2023-04-29T15:44:25.743Z,13.48
2023-04-29T15:46:52.910Z,13.53
2023-04-29T15:49:19.346Z,13.58
2023-04-29T15:51:45.784Z,13.66
2023-04-29T15:54:12.228Z,13.71
2023-04-29T15:56:38.736Z,13.74
2023-04-29T15:59:05.469Z,13.81
2023-04-29T16:01:32.978Z,13.83
2023-04-29T16:04:01.077Z,13.84
2023-04-29T16:06:27.648Z,13.83
2023-04-29T16:08:56.599Z,13.81
2023-04-29T16:11:23.151Z,13.80
2023-04-29T16:13:49.615Z,13.78
2023-04-29T16:16:16.657Z,13.71
2023-04-29T16:18:43.159Z,13.68
2023-04-29T16:21:09.797Z,13.62
2023-04-29T16:23:36.258Z,13.60
2023-04-29T16:26:02.965Z,13.59
2023-04-29T16:28:29.368Z,13.56
2023-04-29T16:30:55.856Z,13.57
2023-04-29T16:33:22.250Z,13.73
2023-04-29T16:35:48.749Z,13.84
2023-04-29T16:38:15.324Z,13.93
2023-04-29T16:40:41.845Z,13.94
2023-04-29T16:43:08.288Z,13.98
2023-04-29T16:45:34.854Z,14.00
2023-04-29T16:48:01.766Z,13.97
2023-04-29T16:50:28.912Z,13.95
2023-04-29T16:52:55.343Z,13.92
2023-04-29T16:55:21.785Z,13.90
2023-04-29T16:57:48.213Z,13.89
2023-04-29T17:00:14.783Z,13.90
2023-04-29T17:02:42.904Z,13.90
2023-04-29T17:05:10.828Z,13.88
2023-04-29T17:07:37.451Z,13.85
2023-04-29T17:10:04.929Z,13.84
2023-04-29T17:12:31.355Z,13.83
2023-04-29T17:14:57.907Z,13.80
2023-04-29T17:17:24.512Z,13.78
2023-04-29T17:19:51.784Z,13.75
2023-04-29T17:22:18.679Z,13.74
2023-04-29T17:24:46.358Z,13.73
2023-04-29T17:27:13.307Z,13.73
2023-04-29T17:29:40.037Z,13.71
2023-04-29T17:32:15.139Z,13.70
2023-04-29T17:34:41.721Z,13.67
2023-04-29T17:37:08.353Z,13.64
2023-04-29T17:39:34.885Z,13.62
2023-04-29T17:42:01.371Z,13.59
2023-04-29T17:44:27.872Z,13.58
2023-04-29T17:46:54.403Z,13.60
2023-04-29T17:49:20.828Z,13.58
2023-04-29T17:51:47.253Z,13.54
2023-04-29T17:54:13.682Z,13.53
2023-04-29T17:56:40.492Z,13.52
2023-04-29T17:59:08.457Z,13.50
2023-04-29T18:01:35.775Z,13.48
2023-04-29T18:04:02.316Z,13.46
2023-04-29T18:06:30.324Z,13.48
2023-04-29T18:08:56.990Z,13.46
2023-04-29T18:11:23.450Z,13.43
2023-04-29T18:13:53.807Z,13.41
2023-04-29T18:16:20.310Z,13.39
2023-04-29T18:18:46.834Z,13.37
2023-04-29T18:21:13.387Z,13.38
2023-04-29T18:23:40.686Z,13.39
2023-04-29T18:26:08.344Z,13.39
2023-04-29T18:28:34.820Z,13.36
2023-04-29T18:31:01.321Z,13.33
2023-04-29T18:33:30.926Z,13.32
2023-04-29T18:35:57.595Z,13.33
2023-04-29T18:38:24.989Z,13.31
2023-04-29T18:40:51.520Z,13.29
2023-04-29T18:43:22.269Z,13.28
2023-04-29T18:45:48.812Z,13.23
2023-04-29T18:48:15.385Z,13.15
2023-04-29T18:50:42.204Z,13.15
2023-04-29T18:53:08.851Z,13.15
2023-04-29T18:55:35.948Z,13.08
2023-04-29T18:58:02.458Z,13.00
2023-04-29T19:00:29.551Z,12.98
2023-04-29T19:02:56.499Z,12.95
2023-04-29T19:05:23.139Z,12.98
2023-04-29T19:07:49.852Z,12.97
2023-04-29T19:10:16.273Z,12.93
2023-04-29T19:12:42.682Z,12.89
2023-04-29T19:15:09.716Z,12.87
2023-04-29T19:17:36.309Z,12.84
2023-04-29T19:20:03.580Z,12.82
2023-04-29T19:22:30.980Z,12.78
2023-04-29T19:24:57.471Z,12.74
2023-04-29T19:27:24.191Z,12.71
2023-04-29T19:29:51.258Z,12.70
2023-04-29T19:32:19.711Z,12.69
2023-04-29T19:34:47.067Z,12.69
2023-04-29T19:37:14.466Z,12.64
2023-04-29T19:39:40.964Z,12.61
2023-04-29T19:42:07.453Z,12.56
2023-04-29T19:44:34.084Z,12.51
2023-04-29T19:47:00.805Z,12.50
2023-04-29T19:49:27.958Z,12.46
2023-04-29T19:51:54.361Z,12.42
2023-04-29T19:54:20.836Z,12.40
2023-04-29T19:56:47.280Z,12.37
2023-04-29T19:59:13.747Z,12.30
2023-04-29T20:01:40.990Z,12.19
2023-04-29T20:04:07.782Z,12.11
2023-04-29T20:06:35.149Z,12.05
2023-04-29T20:09:01.874Z,12.05
2023-04-29T20:11:28.292Z,12.04
2023-04-29T20:13:54.762Z,12.08
2023-04-29T20:16:23.226Z,12.08
2023-04-29T20:18:49.689Z,12.05
2023-04-29T20:21:16.144Z,11.95
2023-04-29T20:23:42.581Z,11.81
2023-04-29T20:26:09.088Z,11.69
2023-04-29T20:28:35.607Z,11.65
2023-04-29T20:31:02.191Z,11.54
2023-04-29T20:33:28.703Z,11.53
2023-04-29T20:35:55.346Z,11.50
2023-04-29T20:38:22.623Z,11.45
2023-04-29T20:40:53.863Z,11.44
2023-04-29T20:43:20.358Z,11.39
2023-04-29T20:45:47.041Z,11.29
2023-04-29T20:48:13.541Z,11.18
2023-04-29T20:50:40.023Z,10.99
2023-04-29T20:53:07.135Z,10.85
2023-04-29T20:55:33.554Z,10.83
2023-04-29T20:57:59.984Z,10.74
2023-04-29T21:00:26.480Z,10.66
2023-04-29T21:02:53.014Z,10.71
2023-04-29T21:05:19.733Z,10.70
2023-04-29T21:07:46.409Z,10.58
2023-04-29T21:10:13.303Z,10.57
2023-04-29T21:12:40.454Z,10.58
2023-04-29T21:15:07.521Z,10.59
2023-04-29T21:17:37.469Z,10.46
2023-04-29T21:20:04.739Z,10.47
2023-04-29T21:22:31.133Z,10.35
2023-04-29T21:24:57.560Z,10.29
2023-04-29T21:27:24.056Z,10.36
2023-04-29T21:29:50.874Z,10.34
2023-04-29T21:32:21.533Z,10.33
2023-04-29T21:34:48.644Z,10.28
2023-04-29T21:37:15.886Z,10.26
2023-04-29T21:39:42.782Z,10.27
2023-04-29T21:42:10.746Z,10.15
2023-04-29T21:44:38.143Z,10.08
2023-04-29T21:47:04.834Z,9.95
2023-04-29T21:49:31.818Z,9.89
2023-04-29T21:51:59.309Z,9.99
2023-04-29T21:54:25.836Z,10.03
2023-04-29T21:56:52.378Z,10.07
2023-04-29T21:59:18.848Z,10.09
2023-04-29T22:01:45.379Z,10.08
2023-04-29T22:04:11.855Z,9.95
2023-04-29T22:06:38.370Z,9.84
2023-04-29T22:09:05.194Z,9.75
2023-04-29T22:11:31.640Z,9.72
2023-04-29T22:13:58.166Z,9.78
2023-04-29T22:16:24.999Z,9.73
2023-04-29T22:18:51.760Z,9.83
2023-04-29T22:21:18.565Z,9.86
2023-04-29T22:23:45.554Z,9.81
2023-04-29T22:26:12.078Z,9.84
2023-04-29T22:28:38.567Z,9.91
2023-04-29T22:31:05.507Z,9.91
2023-04-29T22:33:31.984Z,9.87
2023-04-29T22:35:58.440Z,9.88
2023-04-29T22:38:24.909Z,9.88
2023-04-29T22:40:51.774Z,9.82
2023-04-29T22:43:18.314Z,9.84
2023-04-29T22:45:56.315Z,9.83
2023-04-29T22:48:25.797Z,9.68
2023-04-29T22:50:59.359Z,9.58
2023-04-29T22:53:26.471Z,9.63
2023-04-29T22:55:54.650Z,9.62
2023-04-29T22:58:21.897Z,9.64
2023-04-29T23:00:53.713Z,9.61
2023-04-29T23:03:20.382Z,9.58
2023-04-29T23:05:46.840Z,9.54
2023-04-29T23:08:13.371Z,9.47
2023-04-29T23:10:39.921Z,9.53
2023-04-29T23:13:06.534Z,9.52
2023-04-29T23:15:33.040Z,9.52
2023-04-29T23:17:59.613Z,9.49
2023-04-29T23:20:26.064Z,9.47
2023-04-29T23:22:52.748Z,9.44
2023-04-29T23:25:19.246Z,9.40
2023-04-29T23:27:45.639Z,9.45
2023-04-29T23:30:12.157Z,9.45
2023-04-29T23:32:38.589Z,9.40
2023-04-29T23:35:05.452Z,9.32
2023-04-29T23:37:31.868Z,9.23
2023-04-29T23:39:58.472Z,9.16
2023-04-29T23:42:26.207Z,9.14
2023-04-29T23:44:52.613Z,9.11
2023-04-29T23:47:19.018Z,9.08
2023-04-29T23:49:45.580Z,9.13
2023-04-29T23:52:11.963Z,9.17
2023-04-29T23:54:38.592Z,9.17
2023-04-29T23:57:05.263Z,9.22
2023-04-29T23:59:31.890Z,9.26
